sensor_id;sensor_type;location;lat;lon;timestamp;P1;durP1;ratioP1;P2;durP2;ratioP2
26106;SDS011;13866;50.748;12.630;2023-03-01T00:00:18;21.07;;;17.40;;
26106;SDS011;13866;50.748;12.630;2023-03-01T00:02:44;25.33;;;19.27;;
26106;SDS011;13866;50.748;12.630;2023-03-01T00:05:09;21.00;;;18.03;;
26106;SDS011;13866;50.748;12.630;2023-03-01T00:07:35;20.17;;;17.17;;
26106;SDS011;13866;50.748;12.630;2023-03-01T00:10:00;21.03;;;18.40;;
26106;SDS011;13866;50.748;12.630;2023-03-01T00:12:26;22.00;;;17.50;;
26106;SDS011;13866;50.748;12.630;2023-03-01T00:14:52;22.92;;;19.15;;
26106;SDS011;13866;50.748;12.630;2023-03-01T00:17:18;21.77;;;17.30;;
26106;SDS011;13866;50.748;12.630;2023-03-01T00:19:43;19.60;;;15.90;;
26106;SDS011;13866;50.748;12.630;2023-03-01T00:22:09;17.90;;;16.10;;
26106;SDS011;13866;50.748;12.630;2023-03-01T00:24:34;21.60;;;16.60;;
26106;SDS011;13866;50.748;12.630;2023-03-01T00:26:59;19.40;;;16.83;;
26106;SDS011;13866;50.748;12.630;2023-03-01T00:29:25;20.93;;;17.73;;
26106;SDS011;13866;50.748;12.630;2023-03-01T00:31:51;19.23;;;17.30;;
26106;SDS011;13866;50.748;12.630;2023-03-01T00:34:16;18.37;;;16.27;;
26106;SDS011;13866;50.748;12.630;2023-03-01T00:36:42;20.43;;;16.37;;
26106;SDS011;13866;50.748;12.630;2023-03-01T00:39:10;25.00;;;16.47;;
26106;SDS011;13866;50.748;12.630;2023-03-01T00:41:38;18.55;;;16.20;;
26106;SDS011;13866;50.748;12.630;2023-03-01T00:44:05;18.75;;;16.70;;
26106;SDS011;13866;50.748;12.630;2023-03-01T00:46:30;17.30;;;15.50;;
26106;SDS011;13866;50.748;12.630;2023-03-01T00:48:56;17.53;;;16.03;;
26106;SDS011;13866;50.748;12.630;2023-03-01T00:51:23;17.00;;;15.17;;
26106;SDS011;13866;50.748;12.630;2023-03-01T00:53:51;18.48;;;16.48;;
26106;SDS011;13866;50.748;12.630;2023-03-01T00:56:18;17.38;;;15.50;;
26106;SDS011;13866;50.748;12.630;2023-03-01T00:58:43;18.47;;;15.80;;
26106;SDS011;13866;50.748;12.630;2023-03-01T01:03:48;19.25;;;15.40;;
26106;SDS011;13866;50.748;12.630;2023-03-01T01:06:19;23.73;;;17.98;;
26106;SDS011;13866;50.748;12.630;2023-03-01T01:08:46;18.60;;;16.42;;
26106;SDS011;13866;50.748;12.630;2023-03-01T01:11:12;18.60;;;16.73;;
26106;SDS011;13866;50.748;12.630;2023-03-01T01:13:39;23.60;;;18.00;;
26106;SDS011;13866;50.748;12.630;2023-03-01T01:16:04;20.05;;;16.42;;
26106;SDS011;13866;50.748;12.630;2023-03-01T01:18:31;22.55;;;17.10;;
26106;SDS011;13866;50.748;12.630;2023-03-01T01:20:56;18.63;;;16.77;;
26106;SDS011;13866;50.748;12.630;2023-03-01T01:23:22;18.73;;;16.83;;
26106;SDS011;13866;50.748;12.630;2023-03-01T01:25:47;19.73;;;17.70;;
26106;SDS011;13866;50.748;12.630;2023-03-01T01:28:13;18.20;;;16.40;;
26106;SDS011;13866;50.748;12.630;2023-03-01T01:30:38;17.03;;;15.50;;
26106;SDS011;13866;50.748;12.630;2023-03-01T01:33:04;18.30;;;16.63;;
26106;SDS011;13866;50.748;12.630;2023-03-01T01:35:29;18.80;;;16.80;;
26106;SDS011;13866;50.748;12.630;2023-03-01T01:37:55;18.47;;;16.60;;
26106;SDS011;13866;50.748;12.630;2023-03-01T01:40:20;19.67;;;17.27;;
26106;SDS011;13866;50.748;12.630;2023-03-01T01:42:46;19.60;;;16.70;;
26106;SDS011;13866;50.748;12.630;2023-03-01T01:45:29;17.43;;;15.63;;
26106;SDS011;13866;50.748;12.630;2023-03-01T01:48:07;18.15;;;15.45;;
26106;SDS011;13866;50.748;12.630;2023-03-01T01:50:38;18.48;;;15.98;;
26106;SDS011;13866;50.748;12.630;2023-03-01T01:53:09;16.77;;;15.10;;
26106;SDS011;13866;50.748;12.630;2023-03-01T01:55:40;21.42;;;18.08;;
26106;SDS011;13866;50.748;12.630;2023-03-01T01:58:13;20.10;;;17.60;;
26106;SDS011;13866;50.748;12.630;2023-03-01T02:00:42;20.30;;;17.27;;
26106;SDS011;13866;50.748;12.630;2023-03-01T02:03:10;24.20;;;17.47;;
26106;SDS011;13866;50.748;12.630;2023-03-01T02:05:43;23.30;;;17.25;;
26106;SDS011;13866;50.748;12.630;2023-03-01T02:08:17;20.05;;;15.40;;
26106;SDS011;13866;50.748;12.630;2023-03-01T02:10:45;25.13;;;17.05;;
26106;SDS011;13866;50.748;12.630;2023-03-01T02:13:10;18.25;;;16.67;;
26106;SDS011;13866;50.748;12.630;2023-03-01T02:15:37;21.02;;;17.45;;
26106;SDS011;13866;50.748;12.630;2023-03-01T02:18:05;21.55;;;16.30;;
26106;SDS011;13866;50.748;12.630;2023-03-01T02:20:34;18.58;;;16.23;;
26106;SDS011;13866;50.748;12.630;2023-03-01T02:23:15;17.38;;;15.52;;
26106;SDS011;13866;50.748;12.630;2023-03-01T02:25:44;20.87;;;17.07;;
26106;SDS011;13866;50.748;12.630;2023-03-01T02:30:49;18.02;;;16.23;;
26106;SDS011;13866;50.748;12.630;2023-03-01T02:33:35;21.27;;;17.67;;
26106;SDS011;13866;50.748;12.630;2023-03-01T02:36:06;20.15;;;17.95;;
26106;SDS011;13866;50.748;12.630;2023-03-01T02:38:36;21.25;;;17.85;;
26106;SDS011;13866;50.748;12.630;2023-03-01T02:41:02;19.63;;;17.23;;
26106;SDS011;13866;50.748;12.630;2023-03-01T02:43:30;20.63;;;16.40;;
26106;SDS011;13866;50.748;12.630;2023-03-01T02:45:58;17.10;;;15.50;;
26106;SDS011;13866;50.748;12.630;2023-03-01T02:48:37;20.83;;;15.90;;
26106;SDS011;13866;50.748;12.630;2023-03-01T02:56:39;28.15;;;15.93;;
26106;SDS011;13866;50.748;12.630;2023-03-01T02:59:06;18.30;;;15.88;;
26106;SDS011;13866;50.748;12.630;2023-03-01T03:01:32;17.93;;;15.90;;
26106;SDS011;13866;50.748;12.630;2023-03-01T03:04:08;23.17;;;17.45;;
26106;SDS011;13866;50.748;12.630;2023-03-01T03:06:35;17.08;;;15.43;;
26106;SDS011;13866;50.748;12.630;2023-03-01T03:09:01;21.10;;;16.53;;
26106;SDS011;13866;50.748;12.630;2023-03-01T03:11:27;22.87;;;16.70;;
26106;SDS011;13866;50.748;12.630;2023-03-01T03:13:53;22.87;;;15.13;;
26106;SDS011;13866;50.748;12.630;2023-03-01T03:16:19;28.90;;;18.37;;
26106;SDS011;13866;50.748;12.630;2023-03-01T03:18:45;18.25;;;16.45;;
26106;SDS011;13866;50.748;12.630;2023-03-01T03:21:11;17.40;;;15.70;;
26106;SDS011;13866;50.748;12.630;2023-03-01T03:23:38;25.48;;;18.00;;
26106;SDS011;13866;50.748;12.630;2023-03-01T03:26:04;18.20;;;16.10;;
26106;SDS011;13866;50.748;12.630;2023-03-01T03:28:30;23.80;;;18.73;;
26106;SDS011;13866;50.748;12.630;2023-03-01T03:31:00;19.48;;;17.15;;
26106;SDS011;13866;50.748;12.630;2023-03-01T03:33:29;20.02;;;17.92;;
26106;SDS011;13866;50.748;12.630;2023-03-01T03:35:55;20.55;;;16.27;;
26106;SDS011;13866;50.748;12.630;2023-03-01T03:38:21;17.27;;;15.50;;
26106;SDS011;13866;50.748;12.630;2023-03-01T03:40:48;18.83;;;16.83;;
26106;SDS011;13866;50.748;12.630;2023-03-01T03:43:19;18.80;;;16.80;;
26106;SDS011;13866;50.748;12.630;2023-03-01T03:45:47;19.58;;;17.60;;
26106;SDS011;13866;50.748;12.630;2023-03-01T03:48:14;23.23;;;17.00;;
26106;SDS011;13866;50.748;12.630;2023-03-01T03:50:40;21.43;;;18.57;;
26106;SDS011;13866;50.748;12.630;2023-03-01T03:53:07;18.17;;;15.95;;
26106;SDS011;13866;50.748;12.630;2023-03-01T03:55:35;18.90;;;16.95;;
26106;SDS011;13866;50.748;12.630;2023-03-01T03:58:03;20.83;;;17.20;;
26106;SDS011;13866;50.748;12.630;2023-03-01T04:00:34;21.42;;;17.48;;
26106;SDS011;13866;50.748;12.630;2023-03-01T04:03:05;20.58;;;18.27;;
26106;SDS011;13866;50.748;12.630;2023-03-01T04:05:31;20.05;;;16.70;;
26106;SDS011;13866;50.748;12.630;2023-03-01T04:07:56;23.80;;;17.90;;
26106;SDS011;13866;50.748;12.630;2023-03-01T04:10:29;20.40;;;18.00;;
26106;SDS011;13866;50.748;12.630;2023-03-01T04:12:56;20.88;;;17.23;;
26106;SDS011;13866;50.748;12.630;2023-03-01T04:15:22;25.05;;;18.13;;
26106;SDS011;13866;50.748;12.630;2023-03-01T04:17:50;20.27;;;18.15;;
26106;SDS011;13866;50.748;12.630;2023-03-01T04:20:18;23.20;;;17.90;;
26106;SDS011;13866;50.748;12.630;2023-03-01T04:22:51;19.70;;;17.70;;
26106;SDS011;13866;50.748;12.630;2023-03-01T04:25:22;22.95;;;19.13;;
26106;SDS011;13866;50.748;12.630;2023-03-01T04:27:47;18.90;;;17.03;;
26106;SDS011;13866;50.748;12.630;2023-03-01T04:30:13;25.50;;;18.83;;
26106;SDS011;13866;50.748;12.630;2023-03-01T04:32:38;21.13;;;16.00;;
26106;SDS011;13866;50.748;12.630;2023-03-01T04:35:04;21.67;;;17.97;;
26106;SDS011;13866;50.748;12.630;2023-03-01T04:37:29;19.10;;;17.13;;
26106;SDS011;13866;50.748;12.630;2023-03-01T04:39:55;21.77;;;16.77;;
26106;SDS011;13866;50.748;12.630;2023-03-01T04:42:21;21.90;;;17.83;;
26106;SDS011;13866;50.748;12.630;2023-03-01T04:44:46;19.43;;;17.03;;
26106;SDS011;13866;50.748;12.630;2023-03-01T04:47:11;18.90;;;17.10;;
26106;SDS011;13866;50.748;12.630;2023-03-01T04:49:37;20.43;;;18.27;;
26106;SDS011;13866;50.748;12.630;2023-03-01T04:52:03;19.27;;;17.17;;
26106;SDS011;13866;50.748;12.630;2023-03-01T04:54:29;19.30;;;17.45;;
26106;SDS011;13866;50.748;12.630;2023-03-01T04:56:56;20.58;;;17.13;;
26106;SDS011;13866;50.748;12.630;2023-03-01T04:59:22;26.53;;;16.97;;
26106;SDS011;13866;50.748;12.630;2023-03-01T05:01:48;18.80;;;16.73;;
26106;SDS011;13866;50.748;12.630;2023-03-01T05:04:14;21.40;;;16.42;;
26106;SDS011;13866;50.748;12.630;2023-03-01T05:06:40;20.30;;;17.13;;
26106;SDS011;13866;50.748;12.630;2023-03-01T05:09:05;19.70;;;17.47;;
26106;SDS011;13866;50.748;12.630;2023-03-01T05:11:31;18.73;;;16.03;;
26106;SDS011;13866;50.748;12.630;2023-03-01T05:14:00;18.80;;;16.75;;
26106;SDS011;13866;50.748;12.630;2023-03-01T05:16:26;18.85;;;16.08;;
26106;SDS011;13866;50.748;12.630;2023-03-01T05:18:52;22.70;;;18.17;;
26106;SDS011;13866;50.748;12.630;2023-03-01T05:21:17;17.50;;;15.80;;
26106;SDS011;13866;50.748;12.630;2023-03-01T05:23:43;20.07;;;17.20;;
26106;SDS011;13866;50.748;12.630;2023-03-01T05:26:09;16.83;;;15.27;;
26106;SDS011;13866;50.748;12.630;2023-03-01T05:28:34;20.23;;;16.40;;
26106;SDS011;13866;50.748;12.630;2023-03-01T05:31:00;19.93;;;18.00;;
26106;SDS011;13866;50.748;12.630;2023-03-01T05:33:26;22.03;;;17.17;;
26106;SDS011;13866;50.748;12.630;2023-03-01T05:35:52;18.55;;;16.67;;
26106;SDS011;13866;50.748;12.630;2023-03-01T05:38:19;18.92;;;16.95;;
26106;SDS011;13866;50.748;12.630;2023-03-01T05:40:46;21.23;;;16.65;;
26106;SDS011;13866;50.748;12.630;2023-03-01T05:43:13;18.90;;;16.98;;
26106;SDS011;13866;50.748;12.630;2023-03-01T05:45:40;20.10;;;17.00;;
26106;SDS011;13866;50.748;12.630;2023-03-01T05:48:06;22.67;;;17.33;;
26106;SDS011;13866;50.748;12.630;2023-03-01T05:50:34;19.85;;;17.75;;
26106;SDS011;13866;50.748;12.630;2023-03-01T05:53:05;17.17;;;15.38;;
26106;SDS011;13866;50.748;12.630;2023-03-01T05:55:38;19.08;;;16.95;;
26106;SDS011;13866;50.748;12.630;2023-03-01T05:58:05;19.05;;;16.38;;
26106;SDS011;13866;50.748;12.630;2023-03-01T06:00:34;18.40;;;16.50;;
26106;SDS011;13866;50.748;12.630;2023-03-01T06:02:59;21.13;;;18.43;;
26106;SDS011;13866;50.748;12.630;2023-03-01T06:05:26;20.65;;;18.40;;
26106;SDS011;13866;50.748;12.630;2023-03-01T06:07:52;18.17;;;16.13;;
26106;SDS011;13866;50.748;12.630;2023-03-01T06:10:19;25.50;;;18.50;;
26106;SDS011;13866;50.748;12.630;2023-03-01T06:12:45;18.48;;;16.58;;
26106;SDS011;13866;50.748;12.630;2023-03-01T06:15:12;22.27;;;17.10;;
26106;SDS011;13866;50.748;12.630;2023-03-01T06:17:39;20.42;;;18.20;;
26106;SDS011;13866;50.748;12.630;2023-03-01T06:20:10;47.03;;;25.95;;
26106;SDS011;13866;50.748;12.630;2023-03-01T06:22:38;36.30;;;22.27;;
26106;SDS011;13866;50.748;12.630;2023-03-01T06:25:04;27.00;;;19.20;;
26106;SDS011;13866;50.748;12.630;2023-03-01T06:27:31;28.48;;;22.10;;
26106;SDS011;13866;50.748;12.630;2023-03-01T06:29:56;29.90;;;20.73;;
26106;SDS011;13866;50.748;12.630;2023-03-01T06:32:21;30.33;;;20.33;;
26106;SDS011;13866;50.748;12.630;2023-03-01T06:34:47;27.23;;;19.10;;
26106;SDS011;13866;50.748;12.630;2023-03-01T06:37:13;26.67;;;20.40;;
26106;SDS011;13866;50.748;12.630;2023-03-01T06:39:38;34.63;;;21.43;;
26106;SDS011;13866;50.748;12.630;2023-03-01T06:42:04;28.20;;;20.43;;
26106;SDS011;13866;50.748;12.630;2023-03-01T06:44:29;27.30;;;21.23;;
26106;SDS011;13866;50.748;12.630;2023-03-01T06:46:55;39.90;;;21.80;;
26106;SDS011;13866;50.748;12.630;2023-03-01T06:49:20;28.27;;;19.63;;
26106;SDS011;13866;50.748;12.630;2023-03-01T06:51:46;30.47;;;23.30;;
26106;SDS011;13866;50.748;12.630;2023-03-01T06:54:12;40.47;;;23.27;;
26106;SDS011;13866;50.748;12.630;2023-03-01T06:56:38;33.33;;;22.50;;
26106;SDS011;13866;50.748;12.630;2023-03-01T06:59:03;31.00;;;20.17;;
26106;SDS011;13866;50.748;12.630;2023-03-01T07:01:29;32.70;;;24.13;;
26106;SDS011;13866;50.748;12.630;2023-03-01T07:03:55;37.10;;;22.20;;
26106;SDS011;13866;50.748;12.630;2023-03-01T07:06:21;31.67;;;21.35;;
26106;SDS011;13866;50.748;12.630;2023-03-01T07:08:47;31.87;;;21.50;;
26106;SDS011;13866;50.748;12.630;2023-03-01T07:11:13;30.40;;;22.07;;
26106;SDS011;13866;50.748;12.630;2023-03-01T07:13:38;31.13;;;23.17;;
26106;SDS011;13866;50.748;12.630;2023-03-01T07:16:04;24.83;;;20.57;;
26106;SDS011;13866;50.748;12.630;2023-03-01T07:18:30;30.67;;;20.60;;
26106;SDS011;13866;50.748;12.630;2023-03-01T07:20:55;25.70;;;21.03;;
26106;SDS011;13866;50.748;12.630;2023-03-01T07:23:21;31.70;;;23.10;;
26106;SDS011;13866;50.748;12.630;2023-03-01T07:25:53;28.63;;;21.90;;
26106;SDS011;13866;50.748;12.630;2023-03-01T07:28:19;29.88;;;22.75;;
26106;SDS011;13866;50.748;12.630;2023-03-01T07:30:47;27.65;;;22.05;;
26106;SDS011;13866;50.748;12.630;2023-03-01T07:33:12;33.27;;;21.37;;
26106;SDS011;13866;50.748;12.630;2023-03-01T07:35:37;29.77;;;20.37;;
26106;SDS011;13866;50.748;12.630;2023-03-01T07:38:03;29.63;;;23.13;;
26106;SDS011;13866;50.748;12.630;2023-03-01T07:40:28;29.63;;;23.93;;
26106;SDS011;13866;50.748;12.630;2023-03-01T07:42:55;33.50;;;23.40;;
26106;SDS011;13866;50.748;12.630;2023-03-01T07:45:22;32.50;;;22.33;;
26106;SDS011;13866;50.748;12.630;2023-03-01T07:47:50;33.28;;;23.83;;
26106;SDS011;13866;50.748;12.630;2023-03-01T07:50:17;34.38;;;24.92;;
26106;SDS011;13866;50.748;12.630;2023-03-01T07:52:44;33.10;;;26.83;;
26106;SDS011;13866;50.748;12.630;2023-03-01T07:55:11;36.78;;;26.55;;
26106;SDS011;13866;50.748;12.630;2023-03-01T07:57:36;34.67;;;26.37;;
26106;SDS011;13866;50.748;12.630;2023-03-01T08:00:03;30.92;;;25.00;;
26106;SDS011;13866;50.748;12.630;2023-03-01T08:02:29;33.80;;;23.60;;
26106;SDS011;13866;50.748;12.630;2023-03-01T08:04:54;32.53;;;23.90;;
26106;SDS011;13866;50.748;12.630;2023-03-01T08:07:20;29.90;;;23.40;;
26106;SDS011;13866;50.748;12.630;2023-03-01T08:09:45;31.20;;;23.63;;
26106;SDS011;13866;50.748;12.630;2023-03-01T08:12:11;23.33;;;20.30;;
26106;SDS011;13866;50.748;12.630;2023-03-01T08:14:36;24.17;;;19.97;;
26106;SDS011;13866;50.748;12.630;2023-03-01T08:17:02;29.53;;;21.33;;
26106;SDS011;13866;50.748;12.630;2023-03-01T08:19:28;29.40;;;20.77;;
26106;SDS011;13866;50.748;12.630;2023-03-01T08:21:54;32.25;;;19.95;;
26106;SDS011;13866;50.748;12.630;2023-03-01T08:24:23;26.58;;;20.88;;
26106;SDS011;13866;50.748;12.630;2023-03-01T08:26:48;25.80;;;20.37;;
26106;SDS011;13866;50.748;12.630;2023-03-01T08:29:14;37.57;;;22.17;;
26106;SDS011;13866;50.748;12.630;2023-03-01T08:31:40;30.60;;;20.33;;
26106;SDS011;13866;50.748;12.630;2023-03-01T08:34:07;22.23;;;19.83;;
26106;SDS011;13866;50.748;12.630;2023-03-01T08:36:36;25.75;;;21.63;;
26106;SDS011;13866;50.748;12.630;2023-03-01T08:39:03;23.67;;;18.95;;
26106;SDS011;13866;50.748;12.630;2023-03-01T08:41:30;29.17;;;21.02;;
26106;SDS011;13866;50.748;12.630;2023-03-01T08:43:56;25.52;;;19.38;;
26106;SDS011;13866;50.748;12.630;2023-03-01T08:46:25;28.58;;;20.23;;
26106;SDS011;13866;50.748;12.630;2023-03-01T08:48:52;22.60;;;20.00;;
26106;SDS011;13866;50.748;12.630;2023-03-01T08:51:18;22.17;;;18.83;;
26106;SDS011;13866;50.748;12.630;2023-03-01T08:53:45;23.53;;;20.27;;
26106;SDS011;13866;50.748;12.630;2023-03-01T08:56:11;21.17;;;18.77;;
26106;SDS011;13866;50.748;12.630;2023-03-01T08:58:37;26.30;;;19.30;;
26106;SDS011;13866;50.748;12.630;2023-03-01T09:01:08;23.30;;;17.37;;
26106;SDS011;13866;50.748;12.630;2023-03-01T09:03:35;25.67;;;18.80;;
26106;SDS011;13866;50.748;12.630;2023-03-01T09:06:01;21.60;;;16.40;;
26106;SDS011;13866;50.748;12.630;2023-03-01T09:08:27;23.77;;;17.30;;
26106;SDS011;13866;50.748;12.630;2023-03-01T09:10:53;20.17;;;17.93;;
26106;SDS011;13866;50.748;12.630;2023-03-01T09:13:18;35.80;;;18.97;;
26106;SDS011;13866;50.748;12.630;2023-03-01T09:15:44;20.67;;;17.33;;
26106;SDS011;13866;50.748;12.630;2023-03-01T09:18:09;20.10;;;17.40;;
26106;SDS011;13866;50.748;12.630;2023-03-01T09:20:34;26.73;;;18.73;;
26106;SDS011;13866;50.748;12.630;2023-03-01T09:23:00;22.43;;;19.30;;
26106;SDS011;13866;50.748;12.630;2023-03-01T09:25:26;25.53;;;20.60;;
26106;SDS011;13866;50.748;12.630;2023-03-01T09:27:51;26.00;;;19.87;;
26106;SDS011;13866;50.748;12.630;2023-03-01T09:30:17;24.13;;;19.90;;
26106;SDS011;13866;50.748;12.630;2023-03-01T09:32:43;24.73;;;18.70;;
26106;SDS011;13866;50.748;12.630;2023-03-01T09:35:09;25.10;;;19.73;;
26106;SDS011;13866;50.748;12.630;2023-03-01T09:37:36;26.00;;;19.57;;
26106;SDS011;13866;50.748;12.630;2023-03-01T09:40:12;24.37;;;19.17;;
26106;SDS011;13866;50.748;12.630;2023-03-01T09:42:45;27.70;;;19.77;;
26106;SDS011;13866;50.748;12.630;2023-03-01T09:45:35;27.10;;;19.87;;
26106;SDS011;13866;50.748;12.630;2023-03-01T09:48:05;28.53;;;21.00;;
26106;SDS011;13866;50.748;12.630;2023-03-01T09:50:36;28.13;;;18.40;;
26106;SDS011;13866;50.748;12.630;2023-03-01T09:53:06;23.30;;;18.60;;
26106;SDS011;13866;50.748;12.630;2023-03-01T09:55:43;33.43;;;19.60;;
26106;SDS011;13866;50.748;12.630;2023-03-01T10:01:02;20.23;;;18.10;;
26106;SDS011;13866;50.748;12.630;2023-03-01T10:04:00;22.60;;;18.30;;
26106;SDS011;13866;50.748;12.630;2023-03-01T10:06:37;25.33;;;19.37;;
26106;SDS011;13866;50.748;12.630;2023-03-01T10:09:10;27.27;;;17.57;;
26106;SDS011;13866;50.748;12.630;2023-03-01T10:11:39;23.80;;;18.37;;
26106;SDS011;13866;50.748;12.630;2023-03-01T10:19:48;24.20;;;19.10;;
26106;SDS011;13866;50.748;12.630;2023-03-01T10:22:21;20.73;;;18.00;;
26106;SDS011;13866;50.748;12.630;2023-03-01T10:24:52;24.83;;;19.90;;
26106;SDS011;13866;50.748;12.630;2023-03-01T10:27:24;21.97;;;18.97;;
26106;SDS011;13866;50.748;12.630;2023-03-01T10:30:12;27.83;;;20.07;;
26106;SDS011;13866;50.748;12.630;2023-03-01T10:32:44;24.97;;;20.10;;
26106;SDS011;13866;50.748;12.630;2023-03-01T10:37:57;27.90;;;21.17;;
26106;SDS011;13866;50.748;12.630;2023-03-01T10:40:31;27.70;;;18.27;;
26106;SDS011;13866;50.748;12.630;2023-03-01T10:42:58;22.50;;;17.73;;
26106;SDS011;13866;50.748;12.630;2023-03-01T10:45:31;23.07;;;18.50;;
26106;SDS011;13866;50.748;12.630;2023-03-01T10:50:30;27.70;;;19.50;;
26106;SDS011;13866;50.748;12.630;2023-03-01T10:53:00;20.43;;;18.30;;
26106;SDS011;13866;50.748;12.630;2023-03-01T10:55:31;30.57;;;19.37;;
26106;SDS011;13866;50.748;12.630;2023-03-01T10:58:16;21.23;;;18.93;;
26106;SDS011;13866;50.748;12.630;2023-03-01T11:03:42;21.97;;;18.10;;
26106;SDS011;13866;50.748;12.630;2023-03-01T11:06:20;27.03;;;18.93;;
26106;SDS011;13866;50.748;12.630;2023-03-01T11:08:48;27.93;;;18.70;;
26106;SDS011;13866;50.748;12.630;2023-03-01T11:11:33;23.43;;;18.20;;
26106;SDS011;13866;50.748;12.630;2023-03-01T11:14:01;23.60;;;18.47;;
26106;SDS011;13866;50.748;12.630;2023-03-01T11:16:32;22.80;;;18.00;;
26106;SDS011;13866;50.748;12.630;2023-03-01T11:19:00;26.40;;;18.97;;
26106;SDS011;13866;50.748;12.630;2023-03-01T11:21:26;22.03;;;18.10;;
26106;SDS011;13866;50.748;12.630;2023-03-01T11:23:57;22.10;;;18.90;;
26106;SDS011;13866;50.748;12.630;2023-03-01T11:26:26;24.50;;;19.07;;
26106;SDS011;13866;50.748;12.630;2023-03-01T11:28:55;28.70;;;17.67;;
26106;SDS011;13866;50.748;12.630;2023-03-01T11:31:27;25.13;;;19.40;;
26106;SDS011;13866;50.748;12.630;2023-03-01T11:34:09;21.87;;;19.37;;
26106;SDS011;13866;50.748;12.630;2023-03-01T11:36:43;23.93;;;18.03;;
26106;SDS011;13866;50.748;12.630;2023-03-01T11:39:21;21.30;;;19.20;;
26106;SDS011;13866;50.748;12.630;2023-03-01T11:42:02;23.83;;;18.17;;
26106;SDS011;13866;50.748;12.630;2023-03-01T11:44:42;20.97;;;18.13;;
26106;SDS011;13866;50.748;12.630;2023-03-01T11:50:10;24.70;;;17.07;;
26106;SDS011;13866;50.748;12.630;2023-03-01T11:53:13;20.10;;;17.43;;
26106;SDS011;13866;50.748;12.630;2023-03-01T11:56:13;21.93;;;17.03;;
26106;SDS011;13866;50.748;12.630;2023-03-01T11:59:08;22.17;;;17.57;;
26106;SDS011;13866;50.748;12.630;2023-03-01T12:04:23;27.33;;;18.60;;
26106;SDS011;13866;50.748;12.630;2023-03-01T12:07:20;23.10;;;18.40;;
26106;SDS011;13866;50.748;12.630;2023-03-01T12:10:22;20.87;;;17.20;;
26106;SDS011;13866;50.748;12.630;2023-03-01T12:13:08;18.60;;;16.23;;
26106;SDS011;13866;50.748;12.630;2023-03-01T12:21:36;27.43;;;21.20;;
26106;SDS011;13866;50.748;12.630;2023-03-01T12:24:23;29.03;;;22.97;;
26106;SDS011;13866;50.748;12.630;2023-03-01T12:27:16;26.03;;;20.17;;
26106;SDS011;13866;50.748;12.630;2023-03-01T12:29:56;24.27;;;20.20;;
26106;SDS011;13866;50.748;12.630;2023-03-01T12:32:34;27.93;;;19.23;;
26106;SDS011;13866;50.748;12.630;2023-03-01T12:35:25;26.37;;;20.20;;
26106;SDS011;13866;50.748;12.630;2023-03-01T12:38:30;26.80;;;20.80;;
26106;SDS011;13866;50.748;12.630;2023-03-01T12:51:43;25.20;;;19.57;;
26106;SDS011;13866;50.748;12.630;2023-03-01T12:54:27;26.70;;;19.37;;
26106;SDS011;13866;50.748;12.630;2023-03-01T12:56:55;22.30;;;18.87;;
26106;SDS011;13866;50.748;12.630;2023-03-01T12:59:29;25.50;;;18.97;;
26106;SDS011;13866;50.748;12.630;2023-03-01T13:05:26;20.27;;;17.40;;
26106;SDS011;13866;50.748;12.630;2023-03-01T13:08:36;21.17;;;18.83;;
26106;SDS011;13866;50.748;12.630;2023-03-01T13:11:18;22.33;;;17.93;;
26106;SDS011;13866;50.748;12.630;2023-03-01T13:13:48;25.67;;;19.13;;
26106;SDS011;13866;50.748;12.630;2023-03-01T13:19:07;23.93;;;17.83;;
26106;SDS011;13866;50.748;12.630;2023-03-01T13:21:37;23.53;;;18.47;;
26106;SDS011;13866;50.748;12.630;2023-03-01T13:24:03;25.03;;;19.03;;
26106;SDS011;13866;50.748;12.630;2023-03-01T13:26:28;23.03;;;17.93;;
26106;SDS011;13866;50.748;12.630;2023-03-01T13:28:55;21.90;;;19.80;;
26106;SDS011;13866;50.748;12.630;2023-03-01T13:33:51;26.77;;;19.23;;
26106;SDS011;13866;50.748;12.630;2023-03-01T13:47:13;24.20;;;20.17;;
26106;SDS011;13866;50.748;12.630;2023-03-01T13:49:47;24.47;;;20.17;;
26106;SDS011;13866;50.748;12.630;2023-03-01T13:55:03;30.40;;;23.03;;
26106;SDS011;13866;50.748;12.630;2023-03-01T13:57:34;29.00;;;23.47;;
26106;SDS011;13866;50.748;12.630;2023-03-01T14:00:04;24.37;;;21.30;;
26106;SDS011;13866;50.748;12.630;2023-03-01T14:02:30;29.93;;;22.27;;
26106;SDS011;13866;50.748;12.630;2023-03-01T14:04:59;24.90;;;20.20;;
26106;SDS011;13866;50.748;12.630;2023-03-01T14:07:25;29.23;;;20.93;;
26106;SDS011;13866;50.748;12.630;2023-03-01T14:09:58;30.77;;;20.47;;
26106;SDS011;13866;50.748;12.630;2023-03-01T14:15:22;25.43;;;20.17;;
26106;SDS011;13866;50.748;12.630;2023-03-01T14:20:43;25.87;;;21.17;;
26106;SDS011;13866;50.748;12.630;2023-03-01T14:23:18;27.00;;;19.80;;
26106;SDS011;13866;50.748;12.630;2023-03-01T14:25:48;25.73;;;19.50;;
26106;SDS011;13866;50.748;12.630;2023-03-01T14:28:29;32.27;;;23.40;;
26106;SDS011;13866;50.748;12.630;2023-03-01T14:31:02;25.27;;;20.43;;
26106;SDS011;13866;50.748;12.630;2023-03-01T14:36:02;26.80;;;20.17;;
26106;SDS011;13866;50.748;12.630;2023-03-01T14:38:31;26.93;;;20.70;;
26106;SDS011;13866;50.748;12.630;2023-03-01T14:41:02;26.00;;;22.50;;
26106;SDS011;13866;50.748;12.630;2023-03-01T14:43:31;28.73;;;22.50;;
26106;SDS011;13866;50.748;12.630;2023-03-01T14:45:57;34.50;;;24.37;;
26106;SDS011;13866;50.748;12.630;2023-03-01T14:48:22;32.93;;;20.83;;
26106;SDS011;13866;50.748;12.630;2023-03-01T14:50:48;29.73;;;21.43;;
26106;SDS011;13866;50.748;12.630;2023-03-01T14:53:20;29.63;;;21.30;;
26106;SDS011;13866;50.748;12.630;2023-03-01T14:55:52;37.00;;;22.40;;
26106;SDS011;13866;50.748;12.630;2023-03-01T14:58:20;31.80;;;21.30;;
26106;SDS011;13866;50.748;12.630;2023-03-01T15:00:52;28.40;;;20.40;;
26106;SDS011;13866;50.748;12.630;2023-03-01T15:03:35;25.47;;;21.70;;
26106;SDS011;13866;50.748;12.630;2023-03-01T15:06:05;27.90;;;21.43;;
26106;SDS011;13866;50.748;12.630;2023-03-01T15:08:32;27.50;;;23.40;;
26106;SDS011;13866;50.748;12.630;2023-03-01T15:11:01;23.67;;;19.23;;
26106;SDS011;13866;50.748;12.630;2023-03-01T15:13:42;22.33;;;19.83;;
26106;SDS011;13866;50.748;12.630;2023-03-01T15:16:09;24.20;;;19.27;;
26106;SDS011;13866;50.748;12.630;2023-03-01T15:18:37;26.00;;;21.17;;
26106;SDS011;13866;50.748;12.630;2023-03-01T15:21:17;29.33;;;22.77;;
26106;SDS011;13866;50.748;12.630;2023-03-01T15:23:48;29.63;;;21.37;;
26106;SDS011;13866;50.748;12.630;2023-03-01T15:26:21;26.70;;;21.90;;
26106;SDS011;13866;50.748;12.630;2023-03-01T15:29:11;22.80;;;20.20;;
26106;SDS011;13866;50.748;12.630;2023-03-01T15:31:52;23.20;;;20.00;;
26106;SDS011;13866;50.748;12.630;2023-03-01T15:34:24;25.77;;;20.93;;
26106;SDS011;13866;50.748;12.630;2023-03-01T15:36:52;27.83;;;21.47;;
26106;SDS011;13866;50.748;12.630;2023-03-01T15:42:05;31.17;;;20.20;;
26106;SDS011;13866;50.748;12.630;2023-03-01T15:45:06;23.20;;;20.30;;